Time;durP1;ratioP1;P1;durP2;ratioP2;P2;SDS_P1;SDS_P2;PMS_P1;PMS_P2;Temp;Humidity;BMP_temperature;BMP_pressure;BME280_temperature;BME280_humidity;BME280_pressure;Samples;Min_cycle;Max_cycle;Signal;HPM_P1;HPM_P2
2022/07/28 00:03:22;;;;;;;3.17;0.90;;;14.60;99.90;;;;;;7334653;32;20111;-62
2022/07/28 00:07:25;;;;;;;4.55;0.70;;;14.60;99.90;;;;;;7334511;32;20127;-62
2022/07/28 00:11:26;;;;;;;6.57;0.90;;;14.60;99.90;;;;;;7333078;32;20573;-62
2022/07/28 00:15:28;;;;;;;2.25;1.05;;;14.50;99.90;;;;;;7333060;32;20103;-63
2022/07/28 00:19:30;;;;;;;3.97;0.82;;;14.50;99.90;;;;;;7333819;32;20164;-62
2022/07/28 00:23:32;;;;;;;2.35;0.85;;;14.50;99.90;;;;;;7334433;32;20504;-62
2022/07/28 00:27:40;;;;;;;4.05;0.80;;;14.50;99.90;;;;;;7333228;32;20088;-62
2022/07/28 00:31:42;;;;;;;7.68;1.05;;;14.40;99.90;;;;;;7333688;32;20165;-62
2022/07/28 00:35:44;;;;;;;4.90;0.73;;;14.40;99.90;;;;;;7333559;32;20477;-62
2022/07/28 00:39:49;;;;;;;3.80;0.70;;;14.40;99.90;;;;;;7333004;32;20215;-61
2022/07/28 00:43:51;;;;;;;4.72;0.80;;;14.30;99.90;;;;;;7333511;32;20130;-62
2022/07/28 00:47:53;;;;;;;4.87;0.80;;;14.30;99.90;;;;;;7333040;32;20104;-62
2022/07/28 00:51:55;;;;;;;2.42;0.60;;;14.30;99.90;;;;;;7333904;32;20245;-62
2022/07/28 00:55:57;;;;;;;4.82;0.80;;;14.30;99.90;;;;;;7349598;32;20095;-62
2022/07/28 01:00:19;;;;;;;3.75;0.90;;;14.20;99.90;;;;;;7332093;32;20721;-61
2022/07/28 01:04:22;;;;;;;3.03;0.60;;;14.20;99.90;;;;;;7333714;32;20140;-62
2022/07/28 01:08:51;;;;;;;2.30;0.80;;;14.20;99.90;;;;;;7332997;32;20104;-62
2022/07/28 01:13:07;;;;;;;5.87;0.80;;;14.20;99.90;;;;;;7331218;32;20767;-63
2022/07/28 01:17:31;;;;;;;4.03;0.77;;;14.20;99.90;;;;;;7333297;32;20127;-63
2022/07/28 01:21:36;;;;;;;1.05;0.57;;;14.10;99.90;;;;;;7333036;32;20191;-63
2022/07/28 01:26:05;;;;;;;3.08;0.70;;;14.00;99.90;;;;;;7333592;32;20209;-63
2022/07/28 01:30:19;;;;;;;6.75;0.88;;;13.90;99.90;;;;;;7332635;32;20136;-62
2022/07/28 01:34:41;;;;;;;8.15;0.70;;;13.80;99.90;;;;;;7344832;32;20183;-62
2022/07/28 01:38:46;;;;;;;5.90;0.75;;;13.80;99.90;;;;;;7332408;32;20199;-62
2022/07/28 01:42:52;;;;;;;5.60;0.90;;;13.70;99.90;;;;;;7336358;32;20108;-61
2022/07/28 01:46:57;;;;;;;2.20;0.80;;;13.70;99.90;;;;;;7337840;32;20129;-61
2022/07/28 01:51:01;;;;;;;6.03;0.85;;;13.70;99.90;;;;;;7336922;32;20504;-61
2022/07/28 01:55:03;;;;;;;1.95;0.50;;;13.60;99.90;;;;;;7348284;32;20123;-62
2022/07/28 01:59:08;;;;;;;3.08;0.88;;;13.60;99.90;;;;;;7344392;32;20171;-62
2022/07/28 02:03:11;;;;;;;2.50;0.80;;;13.50;99.90;;;;;;7337543;32;20088;-62
2022/07/28 02:07:15;;;;;;;3.15;0.90;;;13.40;99.90;;;;;;7337568;32;20129;-62
2022/07/28 02:15:38;;;;;;;4.15;0.93;;;13.40;99.90;;;;;;7336232;32;20115;-62
2022/07/28 02:19:43;;;;;;;3.35;0.90;;;13.30;99.90;;;;;;7341290;32;20176;-61
2022/07/28 02:23:47;;;;;;;6.40;0.98;;;13.20;99.90;;;;;;7362101;32;20171;-62
2022/07/28 02:28:02;;;;;;;5.00;0.82;;;13.20;99.90;;;;;;7361949;32;20485;-62
2022/07/28 02:32:11;;;;;;;2.55;1.02;;;13.10;99.90;;;;;;7363013;32;20297;-62
2022/07/28 02:36:31;;;;;;;2.55;0.93;;;13.10;99.90;;;;;;7362512;32;20117;-62
2022/07/28 02:40:35;;;;;;;2.70;1.15;;;13.10;99.90;;;;;;7361513;32;20131;-62
2022/07/28 02:44:41;;;;;;;9.50;1.20;;;13.00;99.90;;;;;;7362242;32;20136;-62
2022/07/28 02:48:46;;;;;;;6.28;1.10;;;13.00;99.90;;;;;;7361357;32;20127;-62
2022/07/28 02:52:48;;;;;;;4.78;1.00;;;12.90;99.90;;;;;;7361601;32;20166;-62
2022/07/28 02:56:52;;;;;;;7.37;1.20;;;13.00;99.90;;;;;;7339590;32;20104;-61
2022/07/28 03:00:56;;;;;;;1.85;0.95;;;12.90;99.90;;;;;;7335729;32;20152;-61
2022/07/28 03:05:00;;;;;;;3.60;1.20;;;12.80;99.90;;;;;;7336330;32;20115;-62
2022/07/28 03:09:02;;;;;;;2.80;1.30;;;12.70;99.90;;;;;;7335367;32;20130;-61
2022/07/28 03:13:07;;;;;;;4.95;1.15;;;12.70;99.90;;;;;;7334307;32;20155;-61
2022/07/28 03:17:09;;;;;;;5.68;1.10;;;12.70;99.90;;;;;;7336427;32;20122;-62
2022/07/28 03:21:11;;;;;;;5.15;1.02;;;12.70;99.90;;;;;;7334952;32;20103;-62
2022/07/28 03:25:22;;;;;;;3.75;1.27;;;12.60;99.90;;;;;;7335302;32;20190;-62
2022/07/28 03:29:26;;;;;;;4.95;1.20;;;12.60;99.90;;;;;;7334979;32;20147;-62
2022/07/28 03:33:28;;;;;;;5.87;1.37;;;12.50;99.90;;;;;;7335729;32;20556;-62
2022/07/28 03:37:45;;;;;;;5.37;1.30;;;12.60;99.90;;;;;;7335207;32;20386;-61
2022/07/28 03:41:47;;;;;;;8.63;1.42;;;12.50;99.90;;;;;;7334929;32;20104;-62
2022/07/28 03:45:49;;;;;;;2.33;0.90;;;12.50;99.90;;;;;;7335192;32;20447;-62
2022/07/28 03:49:51;;;;;;;3.90;1.05;;;12.50;99.90;;;;;;7334283;32;20168;-61
2022/07/28 03:53:53;;;;;;;3.83;1.10;;;12.50;99.90;;;;;;7337482;32;20171;-62
2022/07/28 03:57:57;;;;;;;3.55;1.30;;;12.50;99.90;;;;;;7348507;32;20112;-62
2022/07/28 04:01:59;;;;;;;5.68;1.60;;;12.60;99.90;;;;;;7334411;32;20164;-62
2022/07/28 04:06:01;;;;;;;3.87;1.20;;;12.40;99.90;;;;;;7334252;32;20563;-62
2022/07/28 04:10:05;;;;;;;10.43;1.50;;;12.50;99.90;;;;;;7334068;32;20679;-63
2022/07/28 04:14:07;;;;;;;4.15;1.40;;;12.40;99.90;;;;;;7344736;32;20125;-62
2022/07/28 04:18:13;;;;;;;6.18;1.20;;;12.50;99.90;;;;;;7351350;32;20223;-62
2022/07/28 04:22:15;;;;;;;6.10;1.73;;;12.40;99.90;;;;;;7359733;32;20103;-61
2022/07/28 04:26:17;;;;;;;3.97;1.52;;;12.50;99.90;;;;;;7357949;32;20103;-62
2022/07/28 04:30:26;;;;;;;7.60;1.45;;;12.30;99.90;;;;;;7357251;32;20103;-62
2022/07/28 04:34:28;;;;;;;4.82;1.60;;;12.40;99.90;;;;;;7359332;32;20583;-62
2022/07/28 04:38:30;;;;;;;4.37;1.52;;;12.40;99.90;;;;;;7358785;32;20107;-62
2022/07/28 04:42:32;;;;;;;5.20;1.50;;;12.60;99.90;;;;;;7359031;32;20157;-62
2022/07/28 04:46:34;;;;;;;3.83;1.27;;;12.70;99.90;;;;;;7358660;32;20115;-66
2022/07/28 04:50:36;;;;;;;5.95;1.62;;;12.70;99.90;;;;;;7357669;32;20205;-67
2022/07/28 04:54:38;;;;;;;8.68;1.45;;;12.70;99.90;;;;;;7351757;32;20497;-66
2022/07/28 04:58:40;;;;;;;4.15;1.40;;;12.90;99.90;;;;;;7347532;32;20590;-66
2022/07/28 05:02:44;;;;;;;5.97;1.50;;;13.00;99.90;;;;;;7358139;32;20145;-67
2022/07/28 05:06:46;;;;;;;6.43;2.83;;;13.40;99.90;;;;;;7358598;32;20197;-66
2022/07/28 05:10:48;;;;;;;4.40;1.27;;;13.50;99.90;;;;;;7357886;32;20166;-66
2022/07/28 05:14:49;;;;;;;4.57;1.48;;;13.40;99.90;;;;;;7355905;32;20748;-66
2022/07/28 05:18:51;;;;;;;5.60;1.37;;;13.30;99.90;;;;;;7356929;32;20757;-66
2022/07/28 05:22:53;;;;;;;5.60;1.45;;;13.30;99.90;;;;;;7358100;32;20115;-66
2022/07/28 05:27:02;;;;;;;5.55;2.67;;;13.30;99.90;;;;;;7358217;32;20100;-67
2022/07/28 05:31:03;;;;;;;7.22;1.50;;;13.40;99.90;;;;;;7357505;32;20103;-67
2022/07/28 05:35:06;;;;;;;7.97;2.65;;;13.30;99.90;;;;;;7357180;32;20119;-66
2022/07/28 05:39:07;;;;;;;3.90;1.30;;;13.40;99.90;;;;;;7357344;32;20171;-66
2022/07/28 05:43:09;;;;;;;6.70;1.50;;;13.30;99.90;;;;;;7358219;32;20125;-67
2022/07/28 05:47:11;;;;;;;6.37;1.52;;;13.50;99.90;;;;;;7358193;32;20533;-67
2022/07/28 05:51:12;;;;;;;5.32;1.90;;;13.60;99.90;;;;;;7357046;32;20530;-67
2022/07/28 05:55:15;;;;;;;11.68;1.70;;;13.70;99.90;;;;;;7346577;32;20103;-67
2022/07/28 05:59:17;;;;;;;4.93;1.55;;;13.90;99.90;;;;;;7351500;32;20187;-67
2022/07/28 06:03:18;;;;;;;7.62;1.77;;;14.10;99.90;;;;;;7357666;32;20134;-66
2022/07/28 06:07:20;;;;;;;4.70;1.42;;;14.20;99.90;;;;;;7357764;32;20775;-67
2022/07/28 06:11:42;;;;;;;8.20;1.90;;;14.40;99.90;;;;;;7357296;32;20198;-67
2022/07/28 06:15:46;;;;;;;6.47;1.50;;;14.60;99.90;;;;;;7357172;32;20484;-67
2022/07/28 06:19:48;;;;;;;4.30;1.25;;;14.90;99.90;;;;;;7356761;32;20115;-67
2022/07/28 06:23:49;;;;;;;4.78;1.33;;;15.10;99.90;;;;;;7357466;32;20130;-66
2022/07/28 06:27:54;;;;;;;6.78;1.40;;;15.30;99.90;;;;;;7358729;32;20149;-66
2022/07/28 06:31:56;;;;;;;5.62;1.42;;;15.40;99.90;;;;;;7362690;32;20142;-67
2022/07/28 06:35:57;;;;;;;7.72;1.80;;;15.80;99.90;;;;;;7362370;32;20144;-67
2022/07/28 06:39:59;;;;;;;8.15;1.73;;;16.20;99.90;;;;;;7361363;32;20111;-66
2022/07/28 06:44:01;;;;;;;4.70;1.37;;;16.40;99.90;;;;;;7361505;32;20271;-67
2022/07/28 06:48:03;;;;;;;8.65;1.70;;;16.30;99.90;;;;;;7361683;32;20490;-67
2022/07/28 06:52:05;;;;;;;4.40;1.25;;;16.10;99.90;;;;;;7361747;32;20183;-67
2022/07/28 06:56:07;;;;;;;3.37;1.40;;;16.00;99.90;;;;;;7344679;32;20556;-66
2022/07/28 07:00:28;;;;;;;7.40;1.50;;;16.10;99.90;;;;;;7335312;32;20129;-67
2022/07/28 07:04:30;;;;;;;5.82;1.25;;;16.20;99.90;;;;;;7336209;32;20172;-67
2022/07/28 07:08:33;;;;;;;6.57;1.20;;;16.50;99.90;;;;;;7335195;32;20536;-68
2022/07/28 07:12:35;;;;;;;7.07;1.52;;;16.80;99.90;;;;;;7334867;32;20091;-67
2022/07/28 07:16:37;;;;;;;4.68;1.20;;;16.50;99.90;;;;;;7335667;32;20186;-67
2022/07/28 07:20:39;;;;;;;5.78;1.60;;;16.70;99.90;;;;;;7335342;32;20168;-67
2022/07/28 07:24:41;;;;;;;4.57;1.15;;;16.80;99.90;;;;;;7335052;32;20123;-67
2022/07/28 07:28:42;;;;;;;7.62;1.37;;;17.20;99.90;;;;;;7334661;32;20572;-67
2022/07/28 07:32:44;;;;;;;6.80;1.52;;;17.20;99.90;;;;;;7335418;32;20127;-67
2022/07/28 07:36:46;;;;;;;5.50;1.20;;;17.30;99.90;;;;;;7335259;32;20148;-68
2022/07/28 07:40:49;;;;;;;4.43;1.10;;;17.50;99.90;;;;;;7333614;32;20251;-67
2022/07/28 07:44:51;;;;;;;5.22;1.15;;;17.60;99.90;;;;;;7334502;32;20119;-67
2022/07/28 07:48:53;;;;;;;8.82;1.55;;;17.50;99.90;;;;;;7334054;32;20125;-67
2022/07/28 07:52:55;;;;;;;10.15;1.58;;;17.30;99.90;;;;;;7335065;32;20693;-64
2022/07/28 07:56:57;;;;;;;4.65;1.20;;;17.50;99.90;;;;;;7352437;32;20119;-64
2022/07/28 08:00:58;;;;;;;6.00;1.20;;;17.40;99.90;;;;;;7355096;32;20162;-64
2022/07/28 08:05:00;;;;;;;4.70;1.12;;;17.50;99.90;;;;;;7360154;32;20560;-64
2022/07/28 08:09:02;;;;;;;7.47;1.52;;;17.50;99.90;;;;;;7359663;32;20367;-64
2022/07/28 08:13:06;;;;;;;7.03;1.62;;;17.60;99.90;;;;;;7359284;32;20103;-64
2022/07/28 08:17:08;;;;;;;9.40;1.00;;;17.80;99.90;;;;;;7359579;32;20670;-64
2022/07/28 08:21:11;;;;;;;6.55;1.00;;;17.90;99.90;;;;;;7359500;32;20204;-64
2022/07/28 08:25:13;;;;;;;6.93;1.05;;;18.30;99.90;;;;;;7360042;32;20160;-65
2022/07/28 08:29:15;;;;;;;4.68;1.08;;;18.50;99.90;;;;;;7359227;32;20263;-64
2022/07/28 08:33:20;;;;;;;3.17;0.98;;;18.90;99.90;;;;;;7359477;32;20114;-64
2022/07/28 08:37:22;;;;;;;4.55;1.00;;;19.20;99.90;;;;;;7360055;32;20138;-64
2022/07/28 08:41:55;;;;;;;6.72;1.30;;;20.10;99.90;;;;;;7359426;32;20099;-64
2022/07/28 08:46:00;;;;;;;6.78;1.08;;;19.80;99.90;;;;;;7359674;32;20167;-64
2022/07/28 08:50:04;;;;;;;5.12;1.00;;;20.60;99.90;;;;;;7358337;32;20209;-64
2022/07/28 08:54:06;;;;;;;9.23;1.35;;;21.00;99.90;;;;;;7355578;32;20119;-64
2022/07/28 08:58:10;;;;;;;8.15;0.98;;;21.60;99.90;;;;;;7345778;32;20210;-65
2022/07/28 09:02:13;;;;;;;4.70;0.80;;;21.80;99.90;;;;;;7359647;32;20763;-64
2022/07/28 09:06:16;;;;;;;5.87;1.12;;;22.00;99.90;;;;;;7359368;32;20156;-64
2022/07/28 09:10:18;;;;;;;7.75;1.42;;;22.00;99.90;;;;;;7358337;32;20424;-64
2022/07/28 09:14:20;;;;;;;4.82;0.95;;;22.50;99.90;;;;;;7358719;32;20418;-64
2022/07/28 09:18:22;;;;;;;3.03;0.68;;;22.80;99.90;;;;;;7358734;32;20500;-64
2022/07/28 09:22:24;;;;;;;3.55;1.20;;;22.30;99.90;;;;;;7359040;32;20121;-64
2022/07/28 09:26:26;;;;;;;6.00;1.08;;;22.40;99.90;;;;;;7358447;32;20182;-65
2022/07/28 09:30:33;;;;;;;7.25;0.90;;;22.50;99.90;;;;;;7357958;32;20281;-65
2022/07/28 09:34:38;;;;;;;;;;;22.60;99.90;;;;;;7359589;32;20103;-64
2022/07/28 09:38:40;;;;;;;4.10;0.80;;;22.40;99.90;;;;;;7357884;32;20741;-64
2022/07/28 09:42:48;;;;;;;3.25;0.75;;;22.70;98.80;;;;;;7358575;32;20570;-64
2022/07/28 09:46:50;;;;;;;2.70;0.70;;;22.30;99.90;;;;;;7358942;32;20115;-65
2022/07/28 09:51:13;;;;;;;3.95;0.93;;;22.60;99.90;;;;;;7358338;32;20138;-64
2022/07/28 09:55:15;;;;;;;6.57;0.98;;;22.80;97.40;;;;;;7347454;32;20423;-65
2022/07/28 09:59:17;;;;;;;5.22;1.05;;;23.80;96.50;;;;;;7351224;32;20171;-65
2022/07/28 10:03:24;;;;;;;5.32;0.80;;;22.70;97.40;;;;;;7361020;32;20099;-64
2022/07/28 10:07:28;;;;;;;7.23;1.10;;;22.30;98.40;;;;;;7363751;32;20556;-64
2022/07/28 10:11:30;;;;;;;3.15;0.80;;;21.90;97.20;;;;;;7363190;32;20134;-64
2022/07/28 10:19:53;;;;;;;4.80;1.00;;;22.60;99.10;;;;;;7363289;32;20137;-64
2022/07/28 10:23:59;;;;;;;4.20;0.88;;;23.20;97.10;;;;;;7362709;32;20179;-65
2022/07/28 10:28:02;;;;;;;4.07;1.20;;;22.90;96.50;;;;;;7362537;32;20116;-65
2022/07/28 10:32:05;;;;;;;5.20;0.80;;;22.70;93.90;;;;;;7362646;32;20163;-65
2022/07/28 10:36:08;;;;;;;4.32;0.85;;;23.40;94.70;;;;;;7363647;32;20175;-64
2022/07/28 10:40:11;;;;;;;3.83;0.80;;;23.60;94.20;;;;;;7361928;32;20111;-63
2022/07/28 10:44:13;;;;;;;4.22;0.75;;;22.80;91.70;;;;;;7362382;32;20717;-64
2022/07/28 10:48:16;;;;;;;5.20;1.15;;;23.40;92.00;;;;;;7361743;32;20178;-64
2022/07/28 10:52:19;;;;;;;4.07;0.90;;;23.70;93.30;;;;;;7362829;32;20289;-64
2022/07/28 10:56:51;;;;;;;3.05;0.77;;;23.80;92.50;;;;;;7344551;32;20520;-64
2022/07/28 11:00:53;;;;;;;4.10;1.15;;;23.80;92.30;;;;;;7360244;32;20566;-64
2022/07/28 11:05:02;;;;;;;4.65;0.90;;;23.90;91.70;;;;;;7362074;32;20152;-64
2022/07/28 11:09:16;;;;;;;3.40;0.70;;;23.70;91.20;;;;;;7361843;32;20218;-64
2022/07/28 11:13:34;;;;;;;3.45;0.60;;;23.50;90.80;;;;;;7359196;32;20205;-63
2022/07/28 11:17:37;;;;;;;3.30;0.75;;;23.60;93.00;;;;;;7360763;32;20211;-63
2022/07/28 11:22:20;;;;;;;5.45;1.00;;;23.40;91.90;;;;;;7361961;32;20547;-64
2022/07/28 11:26:23;;;;;;;5.40;1.15;;;24.00;90.80;;;;;;7343321;32;20126;-64
2022/07/28 11:30:24;;;;;;;3.92;1.00;;;23.90;91.90;;;;;;7360264;32;20133;-63
2022/07/28 11:34:46;;;;;;;5.90;1.27;;;24.10;90.70;;;;;;7361288;32;20119;-64
2022/07/28 11:39:46;;;;;;;4.53;1.08;;;23.80;90.60;;;;;;7361117;32;20282;-64
2022/07/28 11:43:48;;;;;;;5.93;0.90;;;23.70;91.70;;;;;;7280584;32;20282;-64
2022/07/28 11:48:16;;;;;;;4.40;0.90;;;24.30;91.20;;;;;;7317451;32;20210;-64
2022/07/28 11:52:19;;;;;;;3.58;0.95;;;24.30;91.20;;;;;;7353500;32;20285;-63
2022/07/28 11:56:34;;;;;;;2.35;0.77;;;24.10;91.50;;;;;;7360759;32;20165;-64
2022/07/28 12:00:36;;;;;;;4.45;0.75;;;24.10;92.60;;;;;;7334750;32;20566;-64
2022/07/28 12:04:38;;;;;;;2.42;0.77;;;23.90;92.20;;;;;;7335463;32;20212;-64
2022/07/28 12:08:53;;;;;;;5.12;0.95;;;24.00;93.20;;;;;;7334416;32;20111;-64
2022/07/28 12:12:57;;;;;;;6.28;0.95;;;24.10;91.90;;;;;;7333570;32;20515;-64
2022/07/28 12:16:59;;;;;;;5.43;0.85;;;24.10;92.10;;;;;;7335236;32;20202;-64
2022/07/28 12:21:01;;;;;;;3.25;1.00;;;24.10;91.70;;;;;;7334106;32;20277;-64
2022/07/28 12:25:06;;;;;;;4.37;1.15;;;24.50;92.80;;;;;;7334592;32;20161;-64
2022/07/28 12:29:14;;;;;;;2.70;0.80;;;24.90;89.20;;;;;;7334420;32;20127;-65
2022/07/28 12:33:24;;;;;;;4.47;1.20;;;24.90;91.00;;;;;;7334804;32;20127;-64
2022/07/28 12:37:30;;;;;;;4.68;1.08;;;24.10;88.00;;;;;;7334355;32;20548;-63
2022/07/28 12:41:33;;;;;;;5.00;0.93;;;24.20;90.90;;;;;;7332885;32;20126;-63
2022/07/28 12:45:46;;;;;;;2.53;0.70;;;24.40;90.00;;;;;;7333975;32;20147;-64
2022/07/28 12:50:11;;;;;;;4.12;0.85;;;24.90;89.90;;;;;;7333080;32;20181;-63
2022/07/28 12:54:13;;;;;;;4.70;0.90;;;25.00;90.80;;;;;;7337556;32;20118;-63
2022/07/28 12:58:25;;;;;;;4.28;1.05;;;24.50;87.30;;;;;;7343806;32;20135;-64
2022/07/28 13:02:36;;;;;;;5.12;0.82;;;24.50;89.50;;;;;;7333856;32;20214;-64
2022/07/28 13:06:39;;;;;;;4.65;0.90;;;24.90;90.30;;;;;;7332974;32;20260;-63
2022/07/28 13:11:07;;;;;;;5.00;1.33;;;24.70;90.20;;;;;;7332207;32;20183;-63
2022/07/28 13:15:29;;;;;;;2.90;1.05;;;24.60;88.80;;;;;;7331989;32;20255;-63
2022/07/28 13:19:30;;;;;;;3.05;0.88;;;24.40;91.40;;;;;;7331967;32;20165;-64
2022/07/28 13:23:32;;;;;;;7.62;1.87;;;24.20;90.10;;;;;;7332806;32;20107;-64
2022/07/28 13:27:34;;;;;;;4.62;1.00;;;24.60;90.50;;;;;;7331807;32;20516;-64
2022/07/28 13:31:36;;;;;;;3.17;0.90;;;24.90;89.30;;;;;;7331907;32;20595;-63
2022/07/28 13:35:38;;;;;;;3.15;0.90;;;24.80;88.30;;;;;;7332399;32;20554;-63
2022/07/28 13:39:40;;;;;;;2.78;0.80;;;24.10;89.90;;;;;;7335768;32;20175;-64
2022/07/28 13:43:42;;;;;;;4.82;0.98;;;24.30;90.80;;;;;;7336770;32;20128;-64
2022/07/28 13:47:48;;;;;;;;;;;25.00;89.00;;;;;;7337213;32;20201;-64
2022/07/28 13:51:54;;;;;;;4.93;1.35;;;24.70;88.10;;;;;;7337551;32;20014;-65
2022/07/28 13:55:56;;;;;;;2.53;1.00;;;24.60;88.30;;;;;;7352924;32;20758;-64
2022/07/28 13:59:58;;;;;;;3.22;0.93;;;24.60;90.00;;;;;;7337196;32;20168;-64
2022/07/28 14:04:00;;;;;;;4.57;0.70;;;25.10;90.20;;;;;;7336753;32;20111;-65
2022/07/28 14:08:02;;;;;;;3.80;0.85;;;25.40;90.50;;;;;;7336060;32;20112;-65
2022/07/28 14:12:04;;;;;;;4.07;0.90;;;25.80;87.00;;;;;;7335457;32;20426;-65
2022/07/28 14:16:06;;;;;;;2.85;0.98;;;25.60;85.50;;;;;;7334875;32;20115;-65
2022/07/28 14:20:15;;;;;;;4.87;1.20;;;25.10;90.50;;;;;;7334790;32;20171;-65
2022/07/28 14:24:16;;;;;;;3.28;1.12;;;24.80;89.00;;;;;;7335755;32;20106;-64
2022/07/28 14:28:19;;;;;;;4.07;0.98;;;25.00;89.00;;;;;;7334643;32;20605;-64
2022/07/28 14:32:20;;;;;;;6.22;2.92;;;25.20;87.90;;;;;;7335386;32;20154;-64
2022/07/28 14:36:22;;;;;;;4.50;1.02;;;24.70;88.50;;;;;;7335429;32;20131;-64
2022/07/28 14:40:24;;;;;;;3.85;1.10;;;24.70;89.30;;;;;;7334832;32;20131;-64
2022/07/28 14:44:26;;;;;;;3.65;0.82;;;24.60;88.50;;;;;;7335126;32;20139;-64
2022/07/28 14:48:29;;;;;;;3.17;0.90;;;24.30;89.00;;;;;;7334165;32;20120;-64
2022/07/28 14:52:31;;;;;;;3.60;1.08;;;24.30;89.30;;;;;;7334711;32;20103;-64
2022/07/28 14:56:33;;;;;;;3.15;0.98;;;24.30;90.30;;;;;;7352489;32;20897;-65
2022/07/28 15:00:34;;;;;;;4.22;0.90;;;24.30;90.50;;;;;;7334534;32;20120;-65
2022/07/28 15:04:36;;;;;;;4.03;1.40;;;24.10;90.90;;;;;;7334105;32;20123;-64
2022/07/28 15:08:38;;;;;;;5.35;1.25;;;23.90;90.30;;;;;;7334254;32;20419;-65
2022/07/28 15:12:40;;;;;;;1.58;0.80;;;23.90;91.20;;;;;;7334141;32;20477;-65
2022/07/28 15:16:42;;;;;;;5.47;1.20;;;24.10;90.10;;;;;;7334493;32;20138;-65
2022/07/28 15:20:44;;;;;;;10.88;1.35;;;24.30;88.50;;;;;;7333226;32;20179;-65
2022/07/28 15:24:46;;;;;;;8.35;1.12;;;24.00;89.40;;;;;;7333965;32;20240;-65
2022/07/28 15:28:47;;;;;;;4.82;1.25;;;24.00;90.40;;;;;;7334161;32;20160;-65
2022/07/28 15:32:50;;;;;;;4.35;1.00;;;24.10;90.40;;;;;;7335112;32;20166;-64
2022/07/28 15:36:57;;;;;;;6.80;1.10;;;23.90;91.60;;;;;;7334514;32;20507;-64
2022/07/28 15:41:00;;;;;;;8.57;1.10;;;23.90;89.80;;;;;;7332984;32;20131;-64
2022/07/28 15:45:02;;;;;;;4.10;0.90;;;23.90;89.80;;;;;;7334009;32;20107;-64
2022/07/28 15:49:09;;;;;;;7.25;1.08;;;23.90;90.10;;;;;;7333505;32;20150;-64
2022/07/28 15:53:11;;;;;;;4.03;1.00;;;23.80;89.70;;;;;;7334059;32;20111;-64
2022/07/28 15:57:13;;;;;;;5.78;1.33;;;23.50;90.00;;;;;;7350357;32;20192;-64
2022/07/28 16:01:16;;;;;;;7.18;1.08;;;23.50;91.50;;;;;;7331747;32;20160;-64
2022/07/28 16:05:18;;;;;;;4.57;1.33;;;23.30;90.90;;;;;;7333269;32;20251;-64
2022/07/28 16:09:21;;;;;;;4.90;0.90;;;23.20;90.70;;;;;;7332219;32;20132;-65
2022/07/28 16:13:23;;;;;;;3.20;0.98;;;23.00;91.50;;;;;;7331939;32;20111;-64
2022/07/28 16:17:40;;;;;;;6.28;1.15;;;23.10;91.20;;;;;;7332508;32;20448;-64
2022/07/28 16:21:42;;;;;;;3.25;0.80;;;23.10;90.90;;;;;;7333767;32;20153;-64
2022/07/28 16:25:47;;;;;;;5.78;1.17;;;23.10;91.00;;;;;;7333569;32;20112;-64
2022/07/28 16:29:49;;;;;;;5.25;0.85;;;23.10;91.20;;;;;;7332491;32;20168;-65
2022/07/28 16:33:51;;;;;;;5.12;1.73;;;23.00;91.60;;;;;;7333417;32;20131;-64
2022/07/28 16:37:53;;;;;;;6.82;1.50;;;23.00;92.30;;;;;;7333032;32;20179;-63
2022/07/28 16:41:55;;;;;;;4.87;1.12;;;23.10;92.40;;;;;;7332347;32;20111;-64
2022/07/28 16:45:58;;;;;;;3.83;1.37;;;23.10;91.90;;;;;;7332576;32;20138;-64
2022/07/28 16:50:00;;;;;;;4.22;0.90;;;23.10;91.20;;;;;;7331681;32;20444;-65
2022/07/28 16:54:01;;;;;;;6.20;1.05;;;23.10;91.40;;;;;;7336249;32;20136;-64
2022/07/28 16:58:03;;;;;;;6.25;1.25;;;23.00;91.20;;;;;;7345916;32;20135;-64
2022/07/28 17:02:07;;;;;;;4.15;0.90;;;23.10;91.80;;;;;;7332353;32;20464;-64
2022/07/28 17:06:09;;;;;;;5.50;1.12;;;23.10;91.80;;;;;;7332605;32;20115;-64
2022/07/28 17:10:14;;;;;;;7.87;4.07;;;23.00;91.90;;;;;;7331518;32;20129;-64
2022/07/28 17:14:20;;;;;;;5.75;1.02;;;22.90;92.40;;;;;;7330382;32;20122;-64
2022/07/28 17:18:22;;;;;;;3.60;0.85;;;22.90;92.30;;;;;;7330898;32;20134;-65
2022/07/28 17:22:24;;;;;;;5.35;1.10;;;22.90;91.80;;;;;;7331657;32;20111;-64
2022/07/28 17:26:28;;;;;;;3.90;1.02;;;22.80;92.20;;;;;;7331018;32;20115;-65
2022/07/28 17:30:49;;;;;;;5.87;1.10;;;22.80;92.50;;;;;;7330817;32;20480;-65
2022/07/28 17:34:51;;;;;;;4.25;1.30;;;22.80;92.30;;;;;;7331668;32;20116;-65
2022/07/28 17:38:53;;;;;;;3.70;1.10;;;22.70;92.30;;;;;;7331059;32;20135;-64
2022/07/28 17:42:55;;;;;;;4.57;0.90;;;22.60;92.60;;;;;;7331591;32;20103;-65
2022/07/28 17:46:56;;;;;;;8.38;1.00;;;22.60;92.30;;;;;;7331566;32;20207;-65
2022/07/28 17:50:58;;;;;;;6.30;1.10;;;22.60;92.50;;;;;;7330335;32;20881;-65
2022/07/28 17:55:33;;;;;;;4.75;1.08;;;22.60;92.40;;;;;;7340878;32;20127;-64
2022/07/28 17:59:30;;;;;;;5.12;1.05;;;22.40;93.50;;;;;;7334894;32;20479;-64
2022/07/28 18:03:52;;;;;;;5.75;1.30;;;22.30;94.20;;;;;;7332351;32;20131;-64
2022/07/28 18:08:01;;;;;;;5.30;1.05;;;22.40;93.40;;;;;;7331502;32;21099;-65
2022/07/28 18:12:03;;;;;;;6.18;0.95;;;22.40;93.50;;;;;;7332982;32;20116;-64
2022/07/28 18:16:05;;;;;;;4.18;0.95;;;22.30;93.40;;;;;;7331879;32;20571;-65
2022/07/28 18:20:07;;;;;;;5.25;1.00;;;22.10;94.00;;;;;;7332252;32;20107;-67
2022/07/28 18:24:09;;;;;;;3.45;0.90;;;22.00;94.30;;;;;;7334411;32;20223;-65
2022/07/28 18:28:11;;;;;;;8.07;2.45;;;21.90;94.40;;;;;;7336521;32;20508;-65
2022/07/28 18:32:14;;;;;;;4.55;1.10;;;21.80;94.50;;;;;;7336632;32;20133;-66
2022/07/28 18:36:16;;;;;;;3.20;0.98;;;21.90;94.70;;;;;;7336327;32;20125;-65
2022/07/28 18:40:20;;;;;;;6.28;1.30;;;21.70;94.70;;;;;;7336360;32;20251;-65
2022/07/28 18:44:22;;;;;;;3.50;0.80;;;21.60;94.60;;;;;;7336304;32;20120;-65
2022/07/28 18:48:26;;;;;;;5.80;1.00;;;21.50;95.20;;;;;;7334878;32;20576;-65
2022/07/28 18:52:28;;;;;;;4.30;1.20;;;21.60;95.70;;;;;;7336547;32;20115;-65
2022/07/28 18:56:30;;;;;;;2.87;1.10;;;21.50;95.20;;;;;;7353240;32;20200;-65
2022/07/28 19:00:32;;;;;;;6.47;1.02;;;21.40;95.30;;;;;;7335541;32;20508;-66
2022/07/28 19:04:34;;;;;;;4.15;1.10;;;21.40;95.80;;;;;;7336090;32;20107;-65
2022/07/28 19:08:49;;;;;;;3.92;0.98;;;21.20;95.80;;;;;;7335193;32;20218;-66
2022/07/28 19:12:51;;;;;;;7.87;1.00;;;21.10;96.00;;;;;;7334675;32;20111;-66
2022/07/28 19:16:53;;;;;;;16.33;8.75;;;21.10;95.90;;;;;;7336108;32;20475;-64
2022/07/28 19:20:55;;;;;;;4.78;1.02;;;21.00;96.10;;;;;;7334837;32;20142;-65
2022/07/28 19:24:56;;;;;;;5.53;0.90;;;21.10;95.80;;;;;;7335745;32;20573;-65
2022/07/28 19:28:58;;;;;;;5.32;1.20;;;20.90;96.00;;;;;;7335066;32;20191;-65
2022/07/28 19:33:01;;;;;;;1.95;0.90;;;20.80;96.70;;;;;;7335221;32;20107;-66
2022/07/28 19:37:02;;;;;;;4.20;1.08;;;20.70;96.70;;;;;;7334697;32;20119;-63
2022/07/28 19:41:04;;;;;;;9.35;1.20;;;20.60;96.70;;;;;;7333929;32;20532;-63
2022/07/28 19:45:07;;;;;;;9.68;1.20;;;20.70;96.30;;;;;;7335484;32;20150;-64
2022/07/28 19:49:10;;;;;;;3.05;0.70;;;20.60;96.40;;;;;;7334692;32;20259;-64
2022/07/28 19:53:12;;;;;;;5.75;1.10;;;20.60;96.80;;;;;;7335270;32;20762;-63
2022/07/28 19:57:15;;;;;;;6.12;1.70;;;20.60;96.80;;;;;;7351827;32;20617;-64
2022/07/28 20:01:17;;;;;;;4.90;1.65;;;20.50;97.50;;;;;;7334080;32;20163;-64
2022/07/28 20:05:19;;;;;;;3.55;0.98;;;20.40;97.90;;;;;;7334255;32;20375;-64
2022/07/28 20:09:21;;;;;;;4.85;1.20;;;20.40;97.70;;;;;;7333146;32;20158;-65
2022/07/28 20:13:23;;;;;;;5.37;0.90;;;20.40;97.40;;;;;;7332603;32;20108;-64
2022/07/28 20:17:24;;;;;;;2.90;0.95;;;20.40;97.70;;;;;;7333979;32;20120;-65
2022/07/28 20:21:39;;;;;;;5.32;1.00;;;20.30;97.80;;;;;;7334615;32;20191;-63
2022/07/28 20:25:41;;;;;;;3.30;1.10;;;20.30;97.80;;;;;;7334585;32;20134;-64
2022/07/28 20:29:43;;;;;;;4.87;1.15;;;20.30;97.60;;;;;;7332800;32;20107;-64
2022/07/28 20:33:46;;;;;;;6.53;1.08;;;20.30;98.00;;;;;;7333344;32;20107;-64
2022/07/28 20:37:47;;;;;;;6.47;1.10;;;20.30;97.80;;;;;;7333295;32;20205;-64
2022/07/28 20:41:49;;;;;;;4.07;1.02;;;20.30;97.90;;;;;;7334189;32;20223;-63
2022/07/28 20:45:51;;;;;;;4.40;1.10;;;20.30;97.70;;;;;;7333722;32;20115;-64
2022/07/28 20:49:53;;;;;;;7.50;1.15;;;20.30;97.60;;;;;;7333761;32;20108;-62
2022/07/28 20:53:55;;;;;;;2.75;1.00;;;20.20;97.90;;;;;;7337000;32;20119;-63
2022/07/28 20:57:57;;;;;;;2.62;1.00;;;20.20;97.80;;;;;;7346904;32;20486;-62
2022/07/28 21:01:59;;;;;;;2.30;0.82;;;20.20;97.40;;;;;;7334092;32;20254;-63
2022/07/28 21:06:00;;;;;;;3.62;0.93;;;20.20;97.30;;;;;;7333842;32;20142;-63
2022/07/28 21:10:05;;;;;;;7.47;1.30;;;20.10;97.50;;;;;;7333115;32;20116;-62
2022/07/28 21:14:07;;;;;;;3.15;1.00;;;20.00;97.70;;;;;;7331793;32;20133;-63
2022/07/28 21:18:09;;;;;;;4.35;1.05;;;20.10;97.60;;;;;;7333059;32;20130;-61
2022/07/28 21:22:11;;;;;;;3.83;1.17;;;20.00;97.90;;;;;;7333587;32;20107;-62
2022/07/28 21:26:14;;;;;;;4.62;1.10;;;19.90;98.00;;;;;;7334230;32;20164;-62